createdAt,value
2018-12-24T00:02:26.699Z,101157.59
2018-12-24T00:04:52.825Z,101166.48
2018-12-24T00:07:20.003Z,101166.94
2018-12-24T00:09:46.139Z,101172.58
2018-12-24T00:12:12.238Z,101175.22
2018-12-24T00:14:38.476Z,101170.89
2018-12-24T00:17:04.591Z,101184.57
2018-12-24T00:19:30.739Z,101189.36
2018-12-24T00:21:56.884Z,101197.75
2018-12-24T00:24:23.016Z,101198.73
2018-12-24T00:26:49.148Z,101200.05
2018-12-24T00:29:15.255Z,101211.55
2018-12-24T00:31:41.383Z,101207.13
2018-12-24T00:34:07.481Z,101212.86
2018-12-24T00:36:33.686Z,101220.78
2018-12-24T00:38:59.808Z,101231.33
2018-12-24T00:41:26.171Z,101248.47
2018-12-24T00:43:52.311Z,101243.56
2018-12-24T00:46:18.501Z,101251.96
2018-12-24T00:48:44.635Z,101259.02
2018-12-24T00:51:10.749Z,101271.52
2018-12-24T00:53:36.897Z,101282.52
2018-12-24T00:56:03.270Z,101273.67
2018-12-24T00:58:29.383Z,101283.02
2018-12-24T01:00:55.585Z,101300.16
2018-12-24T01:03:21.967Z,101300.64
2018-12-24T01:05:48.156Z,101312.13
2018-12-24T01:08:14.267Z,101317.30
2018-12-24T01:10:40.462Z,101310.81
2018-12-24T01:13:06.572Z,101320.19
2018-12-24T01:15:32.683Z,101333.72
2018-12-24T01:17:58.801Z,101344.41
2018-12-24T01:20:25.202Z,101356.97
2018-12-24T01:22:51.320Z,101371.47
2018-12-24T01:25:17.450Z,101373.76
2018-12-24T01:27:43.570Z,101379.03
2018-12-24T01:30:09.678Z,101390.07
2018-12-24T01:32:35.801Z,101399.78
2018-12-24T01:35:01.920Z,101408.53
2018-12-24T01:37:28.045Z,101405.52
2018-12-24T01:39:54.142Z,101419.67
2018-12-24T01:42:20.274Z,101421.00
2018-12-24T01:44:46.422Z,101422.80
2018-12-24T01:47:12.593Z,101435.61
2018-12-24T01:49:38.706Z,101445.70
2018-12-24T01:52:05.107Z,101454.44
2018-12-24T01:54:31.510Z,101454.55
2018-12-24T01:56:57.641Z,101453.61
2018-12-24T01:59:23.759Z,101466.42
2018-12-24T02:01:49.930Z,101465.48
2018-12-24T02:04:16.047Z,101466.80
2018-12-24T02:06:42.161Z,101477.80
2018-12-24T02:09:08.283Z,101488.23
2018-12-24T02:11:34.401Z,101496.97
2018-12-24T02:14:00.519Z,101498.19
2018-12-24T02:16:26.711Z,101503.45
2018-12-24T02:18:52.950Z,101506.44
2018-12-24T02:21:19.056Z,101507.75
2018-12-24T02:23:45.194Z,101511.23
2018-12-24T02:26:11.304Z,101516.27
2018-12-24T02:28:37.435Z,101515.32
2018-12-24T02:31:03.553Z,101515.67
2018-12-24T02:33:29.663Z,101521.77
2018-12-24T02:35:56.079Z,101529.23
2018-12-24T02:38:22.527Z,101528.13
2018-12-24T02:40:48.641Z,101538.33
2018-12-24T02:43:14.759Z,101539.08
2018-12-24T02:45:40.870Z,101542.16
2018-12-24T02:48:06.982Z,101544.80
2018-12-24T02:50:33.084Z,101546.13
2018-12-24T02:52:59.230Z,101551.39
2018-12-24T02:55:25.348Z,101558.47
2018-12-24T02:57:51.503Z,101562.53
2018-12-24T03:00:17.614Z,101574.30
2018-12-24T03:02:43.724Z,101578.25
2018-12-24T03:05:09.847Z,101585.81
2018-12-24T03:07:36.212Z,101587.13
2018-12-24T03:10:02.639Z,101591.54
2018-12-24T03:12:28.764Z,101595.77
2018-12-24T03:14:55.519Z,101598.86
2018-12-24T03:17:21.711Z,101602.47
2018-12-24T03:19:47.848Z,101610.61
2018-12-24T03:22:13.970Z,101611.58
2018-12-24T03:24:40.130Z,101614.22
2018-12-24T03:27:06.353Z,101621.16
2018-12-24T03:29:32.455Z,101623.69
2018-12-24T03:31:58.629Z,101628.47
2018-12-24T03:34:24.755Z,101633.37
2018-12-24T03:36:50.863Z,101634.93
2018-12-24T03:39:17.347Z,101632.67
2018-12-24T03:41:43.459Z,101631.95
2018-12-24T03:44:09.919Z,101646.34
2018-12-24T03:46:36.033Z,101643.70
2018-12-24T03:49:02.130Z,101648.00
2018-12-24T03:51:28.271Z,101657.23
2018-12-24T03:53:54.644Z,101659.88
2018-12-24T03:56:20.772Z,101659.52
2018-12-24T03:58:47.011Z,101662.51
2018-12-24T04:01:13.144Z,101671.63
2018-12-24T04:03:39.263Z,101674.27
2018-12-24T04:06:05.377Z,101672.47
2018-12-24T04:08:31.515Z,101675.59
2018-12-24T04:10:57.645Z,101684.33
2018-12-24T04:13:23.758Z,101684.81
2018-12-24T04:15:49.866Z,101692.34
2018-12-24T04:18:15.975Z,101693.56
2018-12-24T04:20:42.179Z,101706.64
2018-12-24T04:23:08.367Z,101713.34
2018-12-24T04:25:34.494Z,101713.34
2018-12-24T04:28:00.643Z,101721.73
2018-12-24T04:30:26.753Z,101717.78
2018-12-24T04:32:52.868Z,101722.92
2018-12-24T04:35:18.993Z,101728.78
2018-12-24T04:37:45.142Z,101732.39
2018-12-24T04:40:11.247Z,101736.97
2018-12-24T04:42:37.435Z,101739.13
2018-12-24T04:45:03.547Z,101748.45
2018-12-24T04:47:29.665Z,101752.80
2018-12-24T04:49:55.961Z,101753.97
2018-12-24T04:52:22.060Z,101751.83
2018-12-24T04:54:48.190Z,101754.11
2018-12-24T04:57:14.294Z,101768.48
2018-12-24T04:59:40.407Z,101769.31
2018-12-24T05:02:06.523Z,101769.70
2018-12-24T05:04:32.622Z,101785.14
2018-12-24T05:06:58.999Z,101784.69
2018-12-24T05:09:25.103Z,101797.39
2018-12-24T05:11:51.231Z,101810.57
2018-12-24T05:14:17.343Z,101820.74
2018-12-24T05:16:43.502Z,101821.95
2018-12-24T05:19:09.715Z,101836.81
2018-12-24T05:21:35.823Z,101850.97
2018-12-24T05:24:01.939Z,101858.05
2018-12-24T05:26:28.042Z,101861.87
2018-12-24T05:28:54.163Z,101869.92
2018-12-24T05:31:20.384Z,101871.58
2018-12-24T05:33:46.518Z,101883.35
2018-12-24T05:36:12.635Z,101890.30
2018-12-24T05:38:38.817Z,101887.66
2018-12-24T05:41:05.092Z,101897.72
2018-12-24T05:43:31.224Z,101896.16
2018-12-24T05:45:57.332Z,101904.31
2018-12-24T05:48:23.506Z,101914.52
2018-12-24T05:50:49.627Z,101909.73
2018-12-24T05:53:15.735Z,101913.30
2018-12-24T05:55:41.887Z,101927.45
2018-12-24T05:58:08.271Z,101931.77
2018-12-24T06:00:34.378Z,101932.84
2018-12-24T06:03:00.499Z,101939.91
2018-12-24T06:05:26.606Z,101956.58
2018-12-24T06:07:52.735Z,101957.54
2018-12-24T06:10:18.842Z,101963.30
2018-12-24T06:12:44.976Z,101976.00
2018-12-24T06:15:11.167Z,101977.67
2018-12-24T06:17:37.817Z,101976.36
2018-12-24T06:20:03.928Z,101985.00
2018-12-24T06:22:30.234Z,101992.91
2018-12-24T06:24:56.367Z,101998.19
2018-12-24T06:27:22.772Z,102006.00
2018-12-24T06:29:49.083Z,102015.59
2018-12-24T06:32:15.398Z,102021.34
2018-12-24T06:34:41.539Z,102026.14
2018-12-24T06:37:07.658Z,102036.94
2018-12-24T06:39:33.776Z,102048.69
2018-12-24T06:42:01.324Z,102052.16
2018-12-24T06:44:27.440Z,102053.73
2018-12-24T06:46:53.595Z,102061.17
2018-12-24T06:49:19.699Z,102064.16
2018-12-24T06:51:45.823Z,102062.97
2018-12-24T06:54:11.922Z,102066.54
2018-12-24T06:56:38.020Z,102067.02
2018-12-24T06:59:05.370Z,102075.91
2018-12-24T07:01:31.631Z,102075.67
2018-12-24T07:03:57.789Z,102078.67
2018-12-24T07:06:23.910Z,102078.56
2018-12-24T07:08:50.024Z,102084.23
2018-12-24T07:11:16.135Z,102085.64
2018-12-24T07:13:42.269Z,102088.19
2018-12-24T07:16:08.382Z,102090.83
2018-12-24T07:18:34.490Z,102103.27
2018-12-24T07:21:00.599Z,102105.17
2018-12-24T07:23:26.818Z,102106.72
2018-12-24T07:25:52.954Z,102103.60
2018-12-24T07:28:19.070Z,102107.55
2018-12-24T07:30:45.463Z,102112.13
2018-12-24T07:33:12.683Z,102119.78
2018-12-24T07:35:38.809Z,102128.44
2018-12-24T07:38:04.920Z,102132.48
2018-12-24T07:40:31.038Z,102141.02
2018-12-24T07:42:58.538Z,102146.38
2018-12-24T07:45:24.713Z,102150.34
2018-12-24T07:47:50.895Z,102159.34
2018-12-24T07:50:17.035Z,102158.87
2018-12-24T07:52:43.507Z,102158.52
2018-12-24T07:55:09.614Z,102148.70
2018-12-24T07:57:35.747Z,102148.92
2018-12-24T08:00:01.894Z,102155.65
2018-12-24T08:02:28.005Z,102160.09
2018-12-24T08:04:54.134Z,102165.11
2018-12-24T08:07:20.267Z,102166.91
2018-12-24T08:09:46.395Z,102171.70
2018-12-24T08:12:12.900Z,102174.70
2018-12-24T08:14:39.138Z,102181.55
2018-12-24T08:17:05.267Z,102185.41
2018-12-24T08:19:31.398Z,102191.27
2018-12-24T08:21:57.807Z,102188.63
2018-12-24T08:24:23.918Z,102190.20
2018-12-24T08:26:51.457Z,102197.86
2018-12-24T08:29:17.898Z,102207.48
2018-12-24T08:31:44.027Z,102210.38
2018-12-24T08:34:10.172Z,102218.77
2018-12-24T08:36:36.400Z,102228.30
2018-12-24T08:39:02.537Z,102233.45
2018-12-24T08:41:28.718Z,102236.28
2018-12-24T08:43:54.857Z,102244.19
2018-12-24T08:46:20.970Z,102254.75
2018-12-24T08:48:47.074Z,102258.64
2018-12-24T08:51:13.548Z,102271.70
2018-12-24T08:53:39.631Z,102275.38
2018-12-24T08:56:05.815Z,102284.73
2018-12-24T08:58:31.954Z,102294.04
2018-12-24T09:00:58.082Z,102295.84
2018-12-24T09:03:24.297Z,102302.79
2018-12-24T09:05:50.605Z,102309.39
2018-12-24T09:08:16.850Z,102313.56
2018-12-24T09:10:42.963Z,102314.19
2018-12-24T09:13:09.096Z,102324.73
2018-12-24T09:15:35.240Z,102329.17
2018-12-24T09:18:01.447Z,102334.94
2018-12-24T09:20:27.555Z,102341.53
2018-12-24T09:22:53.723Z,102339.52
2018-12-24T09:25:19.843Z,102355.34
2018-12-24T09:27:46.331Z,102359.88
2018-12-24T09:30:12.464Z,102373.94
2018-12-24T09:32:38.574Z,102376.58
2018-12-24T09:35:04.728Z,102378.25
2018-12-24T09:37:30.903Z,102386.47
2018-12-24T09:39:57.167Z,102392.14
2018-12-24T09:42:23.292Z,102399.41
2018-12-24T09:44:49.399Z,102408.76
2018-12-24T09:47:15.530Z,102416.07
2018-12-24T09:49:41.651Z,102417.52
2018-12-24T09:52:07.999Z,102433.64
2018-12-24T09:54:34.219Z,102435.53
2018-12-24T09:57:00.438Z,102438.25
2018-12-24T09:59:26.630Z,102441.85
2018-12-24T10:01:52.747Z,102440.27
2018-12-24T10:04:18.886Z,102447.42
2018-12-24T10:06:44.991Z,102441.58
2018-12-24T10:09:11.111Z,102451.29
2018-12-24T10:11:37.225Z,102454.02
2018-12-24T10:14:03.346Z,102451.66
2018-12-24T10:16:29.650Z,102447.81
2018-12-24T10:18:55.795Z,102447.22
2018-12-24T10:21:21.910Z,102452.88
2018-12-24T10:23:48.014Z,102453.72
2018-12-24T10:26:14.124Z,102464.63
2018-12-24T10:28:40.247Z,102467.27
2018-12-24T10:31:06.373Z,102472.19
2018-12-24T10:33:32.496Z,102480.84
2018-12-24T10:36:37.506Z,102480.77
2018-12-24T10:39:03.551Z,102493.65
2018-12-24T10:41:29.833Z,102494.52
2018-12-24T10:43:56.207Z,102494.04
2018-12-24T10:46:22.302Z,102491.77
2018-12-24T10:48:48.338Z,102493.65
2018-12-24T10:51:14.427Z,102485.73
2018-12-24T10:53:40.451Z,102490.08
2018-12-24T10:56:06.462Z,102490.44
2018-12-24T10:58:32.559Z,102490.17
2018-12-24T11:00:58.577Z,102485.38
2018-12-24T11:03:24.591Z,102481.21
2018-12-24T11:05:50.598Z,102478.13
2018-12-24T11:08:16.612Z,102480.28
2018-12-24T11:10:42.907Z,102479.23
2018-12-24T11:13:08.913Z,102482.23
2018-12-24T11:15:34.927Z,102485.35
2018-12-24T11:18:01.286Z,102484.88
2018-12-24T11:20:27.438Z,102483.95
2018-12-24T11:22:53.437Z,102486.94
2018-12-24T11:25:19.467Z,102486.46
2018-12-24T11:27:45.485Z,102483.34
2018-12-24T11:30:11.514Z,102481.19
2018-12-24T11:32:37.542Z,102484.09
2018-12-24T11:35:03.555Z,102488.89
2018-12-24T11:37:29.550Z,102488.89
2018-12-24T11:39:55.559Z,102494.17
2018-12-24T11:42:21.603Z,102493.24
2018-12-24T11:44:47.639Z,102495.88
2018-12-24T11:47:13.773Z,102500.67
2018-12-24T11:49:39.780Z,102502.39
2018-12-24T11:52:05.787Z,102510.30
2018-12-24T11:54:31.816Z,102511.14
2018-12-24T11:56:57.821Z,102511.50
2018-12-24T11:59:23.831Z,102504.06
2018-12-24T12:01:49.856Z,102505.38
2018-12-24T12:04:15.874Z,102522.17
2018-12-24T12:06:41.879Z,102517.47
2018-12-24T12:09:07.928Z,102524.34
2018-12-24T12:11:33.914Z,102522.53
2018-12-24T12:13:59.938Z,102511.98
2018-12-24T12:16:26.028Z,102520.20
2018-12-24T12:18:52.120Z,102515.45
2018-12-24T12:21:18.142Z,102518.97
2018-12-24T12:23:44.138Z,102517.92
2018-12-24T12:26:10.192Z,102518.67
2018-12-24T12:28:36.214Z,102525.00
2018-12-24T12:31:02.219Z,102518.97
2018-12-24T12:33:28.233Z,102533.48
2018-12-24T12:35:54.252Z,102536.03
2018-12-24T12:38:20.278Z,102542.63
2018-12-24T12:40:46.299Z,102541.31
2018-12-24T12:43:12.320Z,102539.98
2018-12-24T12:45:38.695Z,102534.97
2018-12-24T12:48:04.788Z,102539.02
2018-12-24T12:50:30.822Z,102547.05
2018-12-24T12:52:56.848Z,102548.58
2018-12-24T12:55:22.884Z,102550.82
2018-12-24T12:57:48.887Z,102555.17
2018-12-24T13:00:14.916Z,102555.62
2018-12-24T13:02:40.910Z,102566.66
2018-12-24T13:05:06.930Z,102573.16
2018-12-24T13:07:33.030Z,102580.03
2018-12-24T13:09:59.140Z,102576.08
2018-12-24T13:12:25.166Z,102588.88
2018-12-24T13:14:51.166Z,102588.51
2018-12-24T13:17:17.211Z,102590.31
2018-12-24T13:19:43.360Z,102592.95
2018-12-24T13:22:09.545Z,102607.82
2018-12-24T13:24:35.542Z,102604.70
2018-12-24T13:27:01.547Z,102606.30
2018-12-24T13:29:27.569Z,102609.24
2018-12-24T13:31:53.810Z,102605.28
2018-12-24T13:34:19.835Z,102608.68
2018-12-24T13:36:45.836Z,102612.91
2018-12-24T13:39:11.889Z,102613.78
2018-12-24T13:41:37.896Z,102610.19
2018-12-24T13:44:04.123Z,102614.62
2018-12-24T13:46:30.122Z,102614.98
2018-12-24T13:48:56.215Z,102618.95
2018-12-24T13:51:22.605Z,102625.27
2018-12-24T13:53:48.697Z,102629.98
2018-12-24T13:56:14.728Z,102627.82
2018-12-24T13:58:40.770Z,102626.98
2018-12-24T14:01:06.821Z,102633.46
2018-12-24T14:03:32.841Z,102641.85
2018-12-24T14:05:58.982Z,102647.13
2018-12-24T14:08:25.013Z,102654.09
2018-12-24T14:10:51.009Z,102650.73
2018-12-24T14:13:17.023Z,102662.40
2018-12-24T14:15:43.044Z,102665.40
2018-12-24T14:18:09.138Z,102668.52
2018-12-24T14:20:35.331Z,102672.56
2018-12-24T14:23:01.389Z,102675.59
2018-12-24T14:25:27.404Z,102680.48
2018-12-24T14:27:53.410Z,102685.31
2018-12-24T14:30:19.518Z,102688.52
2018-12-24T14:32:45.672Z,102689.83
2018-12-24T14:35:11.692Z,102693.39
2018-12-24T14:37:37.717Z,102692.19
2018-12-24T14:40:03.746Z,102696.98
2018-12-24T14:42:29.751Z,102699.31
2018-12-24T14:44:55.805Z,102707.23
2018-12-24T14:47:21.804Z,102711.14
2018-12-24T14:49:47.823Z,102712.45
2018-12-24T14:52:13.841Z,102723.86
2018-12-24T14:54:39.864Z,102726.49
2018-12-24T14:57:06.207Z,102732.30
2018-12-24T14:59:32.214Z,102738.98
2018-12-24T15:01:58.211Z,102738.22
2018-12-24T15:04:24.262Z,102747.93
2018-12-24T15:06:50.286Z,102758.87
2018-12-24T15:09:16.304Z,102760.76
2018-12-24T15:11:42.311Z,102757.00
2018-12-24T15:14:08.611Z,102759.32
2018-12-24T15:16:35.950Z,102763.39
2018-12-24T15:19:02.134Z,102763.48
2018-12-24T15:21:28.206Z,102772.34
2018-12-24T15:23:54.249Z,102775.27
2018-12-24T15:26:20.367Z,102765.27
2018-12-24T15:28:46.373Z,102769.99
2018-12-24T15:31:12.411Z,102774.71
2018-12-24T15:33:38.464Z,102771.03
2018-12-24T15:36:04.470Z,102770.51
2018-12-24T15:38:30.480Z,102768.31
2018-12-24T15:40:56.487Z,102771.72
2018-12-24T15:43:22.516Z,102785.67
2018-12-24T15:45:48.518Z,102783.39
2018-12-24T15:48:14.526Z,102785.19
2018-12-24T15:50:40.518Z,102787.94
2018-12-24T15:53:06.564Z,102790.58
2018-12-24T15:55:32.574Z,102786.63
2018-12-24T15:57:58.594Z,102782.27
2018-12-24T16:00:24.612Z,102794.70
2018-12-24T16:02:50.926Z,102788.98
2018-12-24T16:05:16.942Z,102787.66
2018-12-24T16:07:42.979Z,102776.67
2018-12-24T16:10:09.001Z,102778.47
2018-12-24T16:12:35.025Z,102780.35
2018-12-24T16:15:01.287Z,102786.47
2018-12-24T16:17:27.296Z,102776.03
2018-12-24T16:19:53.655Z,102776.88
2018-12-24T16:22:20.050Z,102776.95
2018-12-24T16:24:46.061Z,102780.15
2018-12-24T16:27:12.071Z,102791.18
2018-12-24T16:29:38.101Z,102790.70
2018-12-24T16:32:04.115Z,102791.66
2018-12-24T16:34:30.311Z,102790.89
2018-12-24T16:36:56.335Z,102782.42
2018-12-24T16:39:22.488Z,102788.06
2018-12-24T16:41:48.485Z,102784.03
2018-12-24T16:44:14.595Z,102785.34
2018-12-24T16:46:40.590Z,102794.10
2018-12-24T16:49:06.603Z,102795.90
2018-12-24T16:51:32.633Z,102793.34
2018-12-24T16:53:58.635Z,102800.41
2018-12-24T16:56:24.634Z,102796.94
2018-12-24T16:58:50.638Z,102811.52
2018-12-24T17:01:16.667Z,102815.03
2018-12-24T17:03:42.673Z,102809.00
2018-12-24T17:06:08.694Z,102811.52
2018-12-24T17:08:34.718Z,102814.16
2018-12-24T17:11:01.081Z,102823.51
2018-12-24T17:13:27.199Z,102815.59
2018-12-24T17:15:53.198Z,102803.33
2018-12-24T17:18:19.205Z,102801.16
2018-12-24T17:20:45.245Z,102805.05
2018-12-24T17:23:11.245Z,102804.64
2018-12-24T17:25:37.272Z,102805.41
2018-12-24T17:28:03.279Z,102812.55
2018-12-24T17:30:29.339Z,102830.11
2018-12-24T17:32:55.356Z,102836.59
2018-12-24T17:35:21.380Z,102828.23
2018-12-24T17:37:47.413Z,102828.67
2018-12-24T17:40:13.410Z,102839.23
2018-12-24T17:42:39.442Z,102847.62
2018-12-24T17:45:05.455Z,102854.61
2018-12-24T17:47:31.499Z,102845.93
2018-12-24T17:49:57.539Z,102850.73
2018-12-24T17:52:23.783Z,102846.86
2018-12-24T17:54:49.779Z,102843.85
2018-12-24T17:57:15.833Z,102847.44
2018-12-24T17:59:42.177Z,102852.24
2018-12-24T18:02:08.205Z,102859.68
2018-12-24T18:04:34.207Z,102861.00
2018-12-24T18:07:00.264Z,102870.59
2018-12-24T18:09:26.303Z,102873.34
2018-12-24T18:11:52.622Z,102878.63
2018-12-24T18:14:18.662Z,102879.10
2018-12-24T18:16:44.758Z,102885.11
2018-12-24T18:19:10.795Z,102890.78
2018-12-24T18:21:36.799Z,102898.77
2018-12-24T18:24:02.851Z,102892.47
2018-12-24T18:26:28.852Z,102888.14
2018-12-24T18:28:55.223Z,102892.58
2018-12-24T18:31:21.310Z,102906.22
2018-12-24T18:33:47.327Z,102908.02
2018-12-24T18:36:13.348Z,102916.33
2018-12-24T18:38:39.363Z,102917.72
2018-12-24T18:41:05.446Z,102921.31
2018-12-24T18:43:31.459Z,102927.98
2018-12-24T18:45:57.763Z,102936.66
2018-12-24T18:48:24.087Z,102961.73
2018-12-24T18:50:50.139Z,102968.80
2018-12-24T18:53:16.155Z,102952.97
2018-12-24T18:55:42.173Z,102955.20
2018-12-24T18:58:08.186Z,102956.60
2018-12-24T19:00:34.200Z,102977.70
2018-12-24T19:03:00.202Z,102979.50
2018-12-24T19:05:26.198Z,102973.38
2018-12-24T19:07:52.368Z,102974.23
2018-12-24T19:10:18.385Z,102982.14
2018-12-24T19:12:44.393Z,103002.22
2018-12-24T19:15:10.389Z,103005.63
2018-12-24T19:17:41.383Z,102998.55
2018-12-24T19:20:04.587Z,102986.69
2018-12-24T19:22:30.620Z,102981.88
2018-12-24T19:24:56.650Z,102974.63
2018-12-24T19:27:22.669Z,102985.47
2018-12-24T19:29:48.673Z,102988.59
2018-12-24T19:32:14.675Z,102994.70
2018-12-24T19:34:40.687Z,102992.98
2018-12-24T19:37:06.707Z,102998.37
2018-12-24T19:39:32.724Z,103009.37
2018-12-24T19:41:58.757Z,103003.24
2018-12-24T19:44:24.770Z,103000.13
2018-12-24T19:46:50.817Z,103002.87
2018-12-24T19:49:16.846Z,102993.17
2018-12-24T19:51:42.837Z,102997.49
2018-12-24T19:54:08.848Z,102993.53
2018-12-24T19:56:34.851Z,102999.29
2018-12-24T19:59:00.900Z,103006.36
2018-12-24T20:01:26.896Z,103011.16
2018-12-24T20:03:52.919Z,103007.97
2018-12-24T20:06:18.918Z,103014.20
2018-12-24T20:08:44.940Z,103017.61
2018-12-24T20:11:10.943Z,103014.56
2018-12-24T20:13:36.999Z,103014.09
2018-12-24T20:16:03.003Z,103011.08
2018-12-24T20:18:29.033Z,103014.09
2018-12-24T20:20:55.030Z,103015.05
2018-12-24T20:23:21.059Z,103011.08
2018-12-24T20:25:47.082Z,103016.36
2018-12-24T20:28:13.067Z,103017.28
2018-12-24T20:30:39.110Z,103015.96
2018-12-24T20:33:05.308Z,103016.91
2018-12-24T20:35:31.354Z,103021.64
2018-12-24T20:37:57.370Z,103017.68
2018-12-24T20:40:23.696Z,103013.94
2018-12-24T20:42:49.699Z,103011.30
2018-12-24T20:45:15.700Z,103010.42
2018-12-24T20:47:41.715Z,103014.39
2018-12-24T20:50:07.718Z,103024.94
2018-12-24T20:52:33.755Z,103030.22
2018-12-24T20:54:59.759Z,103039.08
2018-12-24T20:57:26.082Z,103047.84
2018-12-24T20:59:52.534Z,103041.72
2018-12-24T21:02:18.539Z,103047.47
2018-12-24T21:04:44.559Z,103047.95
2018-12-24T21:07:10.570Z,103045.38
2018-12-24T21:09:36.616Z,103040.95
2018-12-24T21:12:02.625Z,103036.22
2018-12-24T21:14:28.667Z,103032.73
2018-12-24T21:16:54.671Z,103028.70
2018-12-24T21:19:20.685Z,103030.88
2018-12-24T21:21:46.726Z,103030.03
2018-12-24T21:24:12.754Z,103035.45
2018-12-24T21:26:38.770Z,103037.64
2018-12-24T21:29:04.786Z,103028.86
2018-12-24T21:31:30.815Z,103022.66
2018-12-24T21:33:56.824Z,103023.50
2018-12-24T21:36:22.900Z,103024.83
2018-12-24T21:38:48.895Z,103020.09
2018-12-24T21:41:14.941Z,103017.46
2018-12-24T21:43:40.943Z,103019.73
2018-12-24T21:46:06.972Z,103018.96
2018-12-24T21:48:32.991Z,103022.08
2018-12-24T21:50:59.023Z,103023.87
2018-12-24T21:53:25.024Z,103023.39
2018-12-24T21:55:52.728Z,103014.70
2018-12-24T21:58:18.939Z,103015.19
2018-12-24T22:00:44.946Z,103011.38
2018-12-24T22:03:10.974Z,103020.16
2018-12-24T22:05:37.254Z,103026.28
2018-12-24T22:08:03.254Z,103021.92
2018-12-24T22:10:29.276Z,103020.06
2018-12-24T22:12:55.302Z,103024.12
2018-12-24T22:15:21.314Z,103031.92
2018-12-24T22:17:47.334Z,103026.28
2018-12-24T22:20:13.366Z,103022.70
2018-12-24T22:22:39.398Z,103028.81
2018-12-24T22:25:05.411Z,103024.48
2018-12-24T22:27:31.410Z,103027.97
2018-12-24T22:29:57.418Z,103035.98
2018-12-24T22:32:23.444Z,103033.90
2018-12-24T22:34:49.471Z,103031.27
2018-12-24T22:37:15.481Z,103031.81
2018-12-24T22:39:41.862Z,103025.28
2018-12-24T22:42:07.892Z,103031.04
2018-12-24T22:44:33.935Z,103040.74
2018-12-24T22:46:59.950Z,103034.62
2018-12-24T22:49:25.955Z,103037.73
2018-12-24T22:51:52.176Z,103042.06
2018-12-24T22:54:18.204Z,103035.94
2018-12-24T22:56:44.221Z,103042.91
2018-12-24T22:59:10.216Z,103039.42
2018-12-24T23:01:36.244Z,103029.72
2018-12-24T23:04:02.268Z,103031.14
2018-12-24T23:06:28.275Z,103031.04
2018-12-24T23:08:54.300Z,103030.67
2018-12-24T23:11:20.307Z,103036.97
2018-12-24T23:13:46.347Z,103038.18
2018-12-24T23:16:12.352Z,103039.60
2018-12-24T23:18:38.426Z,103035.79
2018-12-24T23:21:04.414Z,103042.86
2018-12-24T23:23:30.417Z,103031.47
2018-12-24T23:25:56.628Z,103022.23
2018-12-24T23:28:22.646Z,103029.30
2018-12-24T23:30:48.644Z,103030.63
2018-12-24T23:33:14.651Z,103022.78
2018-12-24T23:35:40.660Z,103020.33
2018-12-24T23:38:06.867Z,103016.30
2018-12-24T23:40:32.874Z,103021.57
2018-12-24T23:42:58.912Z,103018.83
2018-12-24T23:45:24.918Z,103020.69
2018-12-24T23:47:50.967Z,103024.58
2018-12-24T23:50:16.966Z,103025.89
2018-12-24T23:52:43.051Z,103025.77
2018-12-24T23:55:09.491Z,103027.76
2018-12-24T23:57:36.047Z,103019.30
